Time;durP1;ratioP1;P1;durP2;ratioP2;P2;SDS_P1;SDS_P2;PMS_P1;PMS_P2;Temp;Humidity;BMP_temperature;BMP_pressure;BME280_temperature;BME280_humidity;BME280_pressure;Samples;Min_cycle;Max_cycle;Signal;HPM_P1;HPM_P2
2022/06/21 00:00:40;;;;;;;;;;;20.60;71.60;;;;;;5054064;28;1294;-71
2022/06/21 00:03:07;;;;;;;;;;;20.60;71.60;;;;;;5054089;28;1130;-71
2022/06/21 00:05:34;;;;;;;;;;;20.60;71.60;;;;;;5054064;28;1184;-72
2022/06/21 00:08:03;;;;;;;;;;;20.60;71.60;;;;;;5054107;28;700;-72
2022/06/21 00:10:34;;;;;;;;;;;20.60;71.60;;;;;;5053921;28;1208;-72
2022/06/21 00:13:16;;;;;;;;;;;20.60;71.70;;;;;;5055265;28;838;-73
2022/06/21 00:15:42;;;;;;;;;;;20.60;71.60;;;;;;5053960;28;1972;-73
2022/06/21 00:18:14;;;;;;;;;;;20.60;71.60;;;;;;5054967;28;1091;-73
2022/06/21 00:20:40;;;;;;;;;;;20.60;71.60;;;;;;5053662;28;1205;-74
2022/06/21 00:23:06;;;;;;;;;;;20.60;71.60;;;;;;5037162;28;1199;-73
2022/06/21 00:25:31;;;;;;;;;;;20.60;71.60;;;;;;5037140;28;1474;-73
2022/06/21 00:27:57;;;;;;;;;;;20.60;71.60;;;;;;5054996;28;1009;-73
2022/06/21 00:30:23;;;;;;;;;;;20.60;71.60;;;;;;5053435;28;1209;-73
2022/06/21 00:32:49;;;;;;;;;;;20.60;71.60;;;;;;5053532;28;763;-73
2022/06/21 00:35:16;;;;;;;;;;;20.60;71.60;;;;;;5053812;28;1111;-73
2022/06/21 00:37:41;;;;;;;;;;;20.60;71.60;;;;;;5053533;28;1894;-71
2022/06/21 00:40:19;;;;;;;;;;;20.60;71.60;;;;;;5053234;28;1197;-72
2022/06/21 00:42:45;;;;;;;;;;;20.60;71.60;;;;;;5054640;28;957;-73
2022/06/21 00:45:15;;;;;;;;;;;20.60;71.60;;;;;;5036265;28;1486;-73
2022/06/21 00:47:45;;;;;;;;;;;20.60;71.60;;;;;;5049963;28;2268;-72
2022/06/21 00:50:13;;;;;;;;;;;20.60;71.60;;;;;;5084835;28;1640;-72
2022/06/21 00:52:39;;;;;;;;;;;20.60;71.60;;;;;;5054762;28;811;-73
2022/06/21 00:55:05;;;;;;;;;;;20.60;71.60;;;;;;5054730;28;1163;-72
2022/06/21 00:57:35;;;;;;;;;;;20.60;71.60;;;;;;5053203;28;1902;-73
2022/06/21 01:00:22;;;;;;;;;;;20.60;71.60;;;;;;5036284;28;1356;-72
2022/06/21 01:02:47;;;;;;;;;;;20.60;71.60;;;;;;5036470;28;1289;-72
2022/06/21 01:05:13;;;;;;;;;;;20.60;71.60;;;;;;5052999;28;1555;-72
2022/06/21 01:07:38;;;;;;;;;;;20.60;71.60;;;;;;5053203;28;824;-72
2022/06/21 01:10:07;;;;;;;;;;;20.60;71.60;;;;;;5052509;28;1213;-72
2022/06/21 01:12:47;;;;;;;;;;;20.60;71.60;;;;;;5052861;28;1326;-72
2022/06/21 01:15:16;;;;;;;;;;;20.60;71.60;;;;;;5053003;28;1617;-72
2022/06/21 01:17:41;;;;;;;;;;;20.60;71.60;;;;;;5053020;28;1961;-72
2022/06/21 01:20:08;;;;;;;;;;;20.60;71.60;;;;;;5053866;28;1395;-74
2022/06/21 01:22:53;;;;;;;;;;;20.60;71.60;;;;;;5052816;28;817;-73
2022/06/21 01:25:18;;;;;;;;;;;20.60;71.60;;;;;;5054126;28;1046;-73
2022/06/21 01:27:43;;;;;;;;;;;20.60;71.60;;;;;;5053924;28;1013;-73
2022/06/21 01:30:09;;;;;;;;;;;20.60;71.60;;;;;;5052336;28;1199;-73
2022/06/21 01:32:35;;;;;;;;;;;20.60;71.60;;;;;;5052630;28;1733;-73
2022/06/21 01:35:01;;;;;;;;;;;20.60;71.60;;;;;;5052592;28;1585;-73
2022/06/21 01:37:27;;;;;;;;;;;20.60;71.60;;;;;;5052468;28;1954;-72
2022/06/21 01:40:16;;;;;;;;;;;20.60;71.60;;;;;;5052055;28;1307;-72
2022/06/21 01:42:50;;;;;;;;;;;20.60;71.60;;;;;;5045458;28;1517;-71
2022/06/21 01:45:18;;;;;;;;;;;20.60;71.60;;;;;;5052288;28;925;-70
2022/06/21 01:47:46;;;;;;;;;;;20.60;71.60;;;;;;5034905;28;1217;-72
2022/06/21 01:50:11;;;;;;;;;;;20.60;71.60;;;;;;5051978;28;1259;-72
2022/06/21 01:52:38;;;;;;;;;;;20.60;71.60;;;;;;5052081;28;1279;-72
2022/06/21 01:55:05;;;;;;;;;;;20.60;71.60;;;;;;5051884;28;1352;-72
2022/06/21 01:57:31;;;;;;;;;;;20.60;71.60;;;;;;5052695;28;1980;-72
2022/06/21 01:59:58;;;;;;;;;;;20.60;71.60;;;;;;5052834;28;1286;-72
2022/06/21 02:02:29;;;;;;;;;;;20.60;71.60;;;;;;5035414;28;1231;-72
2022/06/21 02:04:59;;;;;;;;;;;20.60;71.60;;;;;;5051995;28;1103;-74
2022/06/21 02:07:27;;;;;;;;;;;20.60;71.60;;;;;;5052073;28;847;-73
2022/06/21 02:10:12;;;;;;;;;;;20.60;71.60;;;;;;5051625;28;1380;-72
2022/06/21 02:12:39;;;;;;;;;;;20.60;71.60;;;;;;5047752;28;2070;-72
2022/06/21 02:15:05;;;;;;;;;;;20.60;71.60;;;;;;5035087;28;1298;-72
2022/06/21 02:17:32;;;;;;;;;;;20.60;71.60;;;;;;5051850;28;1906;-75
2022/06/21 02:20:03;;;;;;;;;;;20.60;71.60;;;;;;5051532;28;1270;-74
2022/06/21 02:22:29;;;;;;;;;;;20.60;71.60;;;;;;5051843;28;1026;-74
2022/06/21 02:24:54;;;;;;;;;;;20.60;71.60;;;;;;5035489;28;1162;-75
2022/06/21 02:27:21;;;;;;;;;;;20.60;71.60;;;;;;5051626;28;859;-72
2022/06/21 02:29:48;;;;;;;;;;;20.60;71.60;;;;;;5048128;28;2066;-72
2022/06/21 02:32:23;;;;;;;;;;;20.60;71.60;;;;;;5051416;28;1107;-72
2022/06/21 02:34:49;;;;;;;;;;;20.60;71.60;;;;;;5051921;28;827;-72
2022/06/21 02:37:15;;;;;;;;;;;20.60;71.60;;;;;;5051553;28;1898;-73
2022/06/21 02:39:41;;;;;;;;;;;20.60;71.60;;;;;;5052642;28;1181;-73
2022/06/21 02:42:09;;;;;;;;;;;20.60;71.60;;;;;;5048253;23;3911;-69
2022/06/21 02:44:37;;;;;;;;;;;20.60;71.60;;;;;;5042882;28;990;-69
2022/06/21 02:47:05;;;;;;;;;;;20.60;71.60;;;;;;5051610;28;807;-69
2022/06/21 02:49:31;;;;;;;;;;;20.60;71.60;;;;;;5051896;28;953;-69
2022/06/21 02:51:59;;;;;;;;;;;20.60;71.60;;;;;;5051410;28;1302;-69
2022/06/21 02:54:26;;;;;;;;;;;20.60;71.60;;;;;;5051500;28;874;-69
2022/06/21 02:56:54;;;;;;;;;;;20.60;71.60;;;;;;5052958;28;1977;-69
2022/06/21 02:59:20;;;;;;;;;;;20.60;71.60;;;;;;5051500;28;898;-70
2022/06/21 03:01:47;;;;;;;;;;;20.60;71.60;;;;;;5051307;28;1214;-69
2022/06/21 03:04:16;;;;;;;;;;;20.60;71.60;;;;;;5041233;28;1264;-70
2022/06/21 03:06:41;;;;;;;;;;;20.60;71.60;;;;;;5032761;28;1057;-69
2022/06/21 03:09:07;;;;;;;;;;;20.60;71.60;;;;;;5035266;28;686;-69
2022/06/21 03:11:37;;;;;;;;;;;20.60;71.60;;;;;;5051812;28;1196;-69
2022/06/21 03:14:03;;;;;;;;;;;20.60;71.60;;;;;;5051958;28;806;-69
2022/06/21 03:16:29;;;;;;;;;;;20.60;71.60;;;;;;5051931;28;1975;-69
2022/06/21 03:18:56;;;;;;;;;;;20.60;71.60;;;;;;5051943;28;819;-69
2022/06/21 03:21:26;;;;;;;;;;;20.60;71.60;;;;;;5051542;28;1207;-69
2022/06/21 03:23:51;;;;;;;;;;;20.60;71.60;;;;;;5051645;28;866;-69
2022/06/21 03:26:17;;;;;;;;;;;20.60;71.60;;;;;;5051790;28;776;-69
2022/06/21 03:28:46;;;;;;;;;;;20.60;71.60;;;;;;5051669;28;923;-69
2022/06/21 03:31:13;;;;;;;;;;;20.60;71.60;;;;;;5051106;28;1302;-69
2022/06/21 03:33:40;;;;;;;;;;;20.60;71.60;;;;;;5051566;28;886;-69
2022/06/21 03:36:07;;;;;;;;;;;20.60;71.60;;;;;;5035996;28;1970;-70
2022/06/21 03:38:33;;;;;;;;;;;20.60;71.60;;;;;;5051304;28;851;-68
2022/06/21 03:43:53;;;;;;;;;;;20.60;71.60;;;;;;5035940;28;626;-69
2022/06/21 03:46:21;;;;;;;;;;;20.60;71.60;;;;;;5018378;28;883;-69
2022/06/21 03:48:48;;;;;;;;;;;20.60;71.60;;;;;;5018086;28;777;-69
2022/06/21 03:51:15;;;;;;;;;;;20.60;71.60;;;;;;5017958;28;1384;-69
2022/06/21 03:53:41;;;;;;;;;;;20.60;71.60;;;;;;5018014;28;851;-70
2022/06/21 03:56:08;;;;;;;;;;;20.60;71.60;;;;;;5034399;28;1957;-69
2022/06/21 03:58:41;;;;;;;;;;;20.60;71.60;;;;;;5018343;28;823;-70
2022/06/21 04:01:21;;;;;;;;;;;20.60;71.60;;;;;;5017927;28;1219;-69
2022/06/21 04:04:01;;;;;;;;;;;20.60;71.60;;;;;;5017867;28;1134;-69
2022/06/21 04:06:27;;;;;;;;;;;20.60;71.60;;;;;;5014767;28;836;-69
2022/06/21 04:09:00;;;;;;;;;;;20.60;71.60;;;;;;5016066;28;776;-69
2022/06/21 04:11:28;;;;;;;;;;;20.60;71.60;;;;;;5015561;28;1315;-69
2022/06/21 04:14:07;;;;;;;;;;;20.60;71.60;;;;;;5014603;28;1025;-70
2022/06/21 04:16:42;;;;;;;;;;;20.60;71.60;;;;;;5014470;28;1906;-69
2022/06/21 04:19:09;;;;;;;;;;;20.60;71.60;;;;;;5024180;28;1495;-69
2022/06/21 04:21:37;;;;;;;;;;;20.60;71.60;;;;;;5000526;28;1342;-69
2022/06/21 04:24:12;;;;;;;;;;;20.60;71.60;;;;;;5017602;28;827;-69
2022/06/21 04:26:51;;;;;;;;;;;20.60;71.60;;;;;;5035454;28;824;-70
2022/06/21 04:29:36;;;;;;;;;;;20.60;71.60;;;;;;5035433;28;828;-69
2022/06/21 04:32:06;;;;;;;;;;;20.60;71.60;;;;;;5017294;28;1193;-69
2022/06/21 04:34:37;;;;;;;;;;;20.60;71.60;;;;;;5017232;28;870;-70
2022/06/21 04:37:05;;;;;;;;;;;20.60;71.60;;;;;;5017417;28;1902;-69
2022/06/21 04:39:42;;;;;;;;;;;20.60;71.60;;;;;;5017204;28;903;-70
2022/06/21 04:42:07;;;;;;;;;;;20.60;71.60;;;;;;5017114;28;1247;-69
2022/06/21 04:44:45;;;;;;;;;;;20.60;71.60;;;;;;5034858;28;989;-70
2022/06/21 04:47:28;;;;;;;;;;;20.60;71.60;;;;;;5034842;28;838;-69
2022/06/21 04:49:58;;;;;;;;;;;20.60;71.60;;;;;;5034666;28;899;-69
2022/06/21 04:52:25;;;;;;;;;;;20.60;71.60;;;;;;5034668;28;1194;-69
2022/06/21 04:54:50;;;;;;;;;;;20.60;71.60;;;;;;5017117;28;1100;-70
2022/06/21 04:57:24;;;;;;;;;;;20.60;71.60;;;;;;5016768;28;1902;-69
2022/06/21 04:59:50;;;;;;;;;;;20.60;71.60;;;;;;5016979;28;917;-70
2022/06/21 05:02:22;;;;;;;;;;;20.60;71.60;;;;;;5016690;28;1298;-69
2022/06/21 05:04:49;;;;;;;;;;;20.60;71.60;;;;;;5034373;28;1187;-69
2022/06/21 05:07:18;;;;;;;;;;;20.60;71.60;;;;;;5016854;28;872;-68
2022/06/21 05:09:44;;;;;;;;;;;20.60;71.60;;;;;;5016654;28;815;-69
2022/06/21 05:12:11;;;;;;;;;;;20.60;71.60;;;;;;5016525;28;1268;-70
2022/06/21 05:14:37;;;;;;;;;;;20.60;71.60;;;;;;5016616;28;930;-69
2022/06/21 05:17:04;;;;;;;;;;;20.60;71.60;;;;;;5016541;28;1959;-69
2022/06/21 05:19:33;;;;;;;;;;;20.60;71.60;;;;;;5016321;28;1116;-69
2022/06/21 05:22:02;;;;;;;;;;;20.60;71.60;;;;;;5032822;28;1286;-69
2022/06/21 05:24:28;;;;;;;;;;;20.60;71.60;;;;;;5032757;28;978;-69
2022/06/21 05:26:57;;;;;;;;;;;20.60;71.60;;;;;;5034171;28;898;-69
2022/06/21 05:29:25;;;;;;;;;;;20.60;71.60;;;;;;5033943;28;1030;-69
2022/06/21 05:31:52;;;;;;;;;;;20.60;71.60;;;;;;5032626;28;1219;-69
2022/06/21 05:34:36;;;;;;;;;;;20.60;71.60;;;;;;5032668;28;863;-69
2022/06/21 05:37:03;;;;;;;;;;;20.60;71.60;;;;;;5032534;28;1902;-69
2022/06/21 05:39:31;;;;;;;;;;;20.60;71.60;;;;;;5032565;28;808;-69
2022/06/21 05:41:58;;;;;;;;;;;20.60;71.60;;;;;;5033092;28;1271;-70
2022/06/21 05:44:28;;;;;;;;;;;20.60;71.60;;;;;;5031649;28;970;-69
2022/06/21 05:46:56;;;;;;;;;;;20.60;71.60;;;;;;5031874;28;895;-69
2022/06/21 05:49:21;;;;;;;;;;;20.60;71.60;;;;;;5032685;28;930;-69
2022/06/21 05:51:47;;;;;;;;;;;20.60;71.60;;;;;;5032473;28;1267;-68
2022/06/21 05:54:13;;;;;;;;;;;20.60;71.60;;;;;;5031616;28;923;-68
2022/06/21 05:56:39;;;;;;;;;;;20.60;71.60;;;;;;5031472;28;1915;-69
2022/06/21 05:59:05;;;;;;;;;;;20.60;71.60;;;;;;5031485;28;985;-68
2022/06/21 06:01:31;;;;;;;;;;;20.60;71.60;;;;;;5032543;28;1679;-68
2022/06/21 06:04:15;;;;;;;;;;;20.60;71.60;;;;;;5014028;28;1754;-67
2022/06/21 06:06:42;;;;;;;;;;;20.60;71.60;;;;;;5025372;28;1064;-69
2022/06/21 06:09:10;;;;;;;;;;;20.60;71.60;;;;;;5020947;28;1133;-69
2022/06/21 06:11:58;;;;;;;;;;;20.60;71.60;;;;;;5011890;28;1131;-69
2022/06/21 06:14:23;;;;;;;;;;;20.60;71.60;;;;;;5011466;28;943;-69
2022/06/21 06:16:49;;;;;;;;;;;20.60;71.60;;;;;;5010639;28;1963;-69
2022/06/21 06:19:21;;;;;;;;;;;20.60;71.60;;;;;;5016817;28;1198;-68
2022/06/21 06:21:51;;;;;;;;;;;20.60;71.60;;;;;;5010281;28;1310;-68
2022/06/21 06:24:16;;;;;;;;;;;20.60;71.60;;;;;;5010443;28;1072;-69
2022/06/21 06:26:42;;;;;;;;;;;20.60;71.60;;;;;;5012182;28;799;-68
2022/06/21 06:29:07;;;;;;;;;;;20.60;71.60;;;;;;5011469;28;934;-68
2022/06/21 06:31:37;;;;;;;;;;;20.60;71.60;;;;;;5011425;28;1306;-69
2022/06/21 06:34:07;;;;;;;;;;;20.60;72.40;;;;;;5010178;28;985;-69
2022/06/21 06:36:33;;;;;;;;;;;20.60;71.60;;;;;;5010208;28;1945;-70
2022/06/21 06:38:59;;;;;;;;;;;20.60;71.60;;;;;;5011410;28;823;-70
2022/06/21 06:41:26;;;;;;;;;;;20.60;71.60;;;;;;4973117;28;1062965;-69
2022/06/21 06:44:02;;;;;;;;;;;20.60;71.60;;;;;;5015651;28;839;-67
2022/06/21 06:46:28;;;;;;;;;;;20.60;71.60;;;;;;5018790;28;898;-68
2022/06/21 06:49:12;;;;;;;;;;;20.60;71.60;;;;;;5018633;28;875;-68
2022/06/21 06:51:40;;;;;;;;;;;20.60;71.60;;;;;;5018506;28;1303;-69
2022/06/21 06:54:09;;;;;;;;;;;20.60;71.60;;;;;;5019134;28;867;-69
2022/06/21 06:56:41;;;;;;;;;;;20.60;71.60;;;;;;5018447;28;1973;-68
2022/06/21 06:59:07;;;;;;;;;;;20.60;71.60;;;;;;5033072;28;2121;-68
2022/06/21 07:01:40;;;;;;;;;;;20.60;71.60;;;;;;5038014;28;1583;-68
2022/06/21 07:04:05;;;;;;;;;;;20.60;71.60;;;;;;5037088;28;1920;-68
2022/06/21 07:06:31;;;;;;;;;;;20.60;71.60;;;;;;5038931;28;1119;-68
2022/06/21 07:09:03;;;;;;;;;;;20.60;71.60;;;;;;5039166;28;1135;-68
2022/06/21 07:11:38;;;;;;;;;;;20.60;71.60;;;;;;5034209;28;1189;-67
2022/06/21 07:14:03;;;;;;;;;;;20.60;71.60;;;;;;5019355;28;1354;-68
2022/06/21 07:16:29;;;;;;;;;;;20.60;71.60;;;;;;5019371;28;1977;-68
2022/06/21 07:18:55;;;;;;;;;;;20.60;71.60;;;;;;5025167;28;1115;-69
2022/06/21 07:21:20;;;;;;;;;;;20.60;71.60;;;;;;5005247;28;1298;-68
2022/06/21 07:23:46;;;;;;;;;;;20.60;71.60;;;;;;5021379;28;997;-68
2022/06/21 07:26:17;;;;;;;;;;;20.60;71.60;;;;;;5021408;28;1002;-68
2022/06/21 07:28:42;;;;;;;;;;;20.60;71.70;;;;;;5021692;28;823;-68
2022/06/21 07:31:10;;;;;;;;;;;20.60;71.60;;;;;;5038779;28;1287;-68
2022/06/21 07:33:43;;;;;;;;;;;20.60;71.70;;;;;;5038838;28;994;-69
2022/06/21 07:36:15;;;;;;;;;;;20.60;71.70;;;;;;5021325;28;1906;-68
2022/06/21 07:38:51;;;;;;;;;;;20.60;71.60;;;;;;5021589;28;867;-68
2022/06/21 07:41:18;;;;;;;;;;;20.60;71.60;;;;;;5020770;28;1252;-68
2022/06/21 07:43:48;;;;;;;;;;;20.60;71.60;;;;;;5021389;28;907;-68
2022/06/21 07:46:27;;;;;;;;;;;20.60;71.60;;;;;;5020982;28;827;-68
2022/06/21 07:49:07;;;;;;;;;;;20.60;71.60;;;;;;5021162;28;820;-68
2022/06/21 07:51:34;;;;;;;;;;;20.60;71.70;;;;;;5020799;28;1298;-68
2022/06/21 07:53:59;;;;;;;;;;;20.60;72.40;;;;;;5020211;28;883;-67
2022/06/21 07:56:25;;;;;;;;;;;20.60;71.70;;;;;;5033427;28;1898;-68
2022/06/21 07:58:50;;;;;;;;;;;20.60;71.60;;;;;;5035772;28;831;-68
2022/06/21 08:06:50;;;;;;;;;;;20.60;71.60;;;;;;5020754;28;700;-68
2022/06/21 08:09:25;;;;;;;;;;;20.60;71.60;;;;;;5017757;28;909;-68
2022/06/21 08:11:51;;;;;;;;;;;20.60;71.70;;;;;;5035039;28;1200;-67
2022/06/21 08:14:17;;;;;;;;;;;20.60;71.60;;;;;;5035370;28;911;-68
2022/06/21 08:16:46;;;;;;;;;;;20.60;71.70;;;;;;5017753;28;1898;-68
2022/06/21 08:19:13;;;;;;;;;;;20.60;71.70;;;;;;5035287;28;1309;-68
2022/06/21 08:21:41;;;;;;;;;;;20.60;71.70;;;;;;5034894;28;1225;-68
2022/06/21 08:24:14;;;;;;;;;;;20.60;71.70;;;;;;5035203;28;819;-68
2022/06/21 08:26:39;;;;;;;;;;;20.60;71.60;;;;;;5034111;28;803;-68
2022/06/21 08:29:08;;;;;;;;;;;20.60;71.70;;;;;;5035049;28;1021;-68
2022/06/21 08:31:35;;;;;;;;;;;20.60;71.70;;;;;;5033627;28;1310;-68
2022/06/21 08:34:03;;;;;;;;;;;20.60;71.70;;;;;;5033745;28;974;-68
2022/06/21 08:36:30;;;;;;;;;;;20.60;71.70;;;;;;5033817;28;1965;-68
2022/06/21 08:38:57;;;;;;;;;;;20.60;71.70;;;;;;5033735;28;910;-68
2022/06/21 08:43:59;;;;;;;;;;;20.60;71.70;;;;;;5032173;28;1679;-73
2022/06/21 08:46:45;;;;;;;;;;;20.60;71.70;;;;;;5050042;28;870;-73
2022/06/21 08:49:20;;;;;;;;;;;20.60;71.70;;;;;;5023225;28;1085;-72
2022/06/21 08:51:52;;;;;;;;;;;20.60;71.70;;;;;;5034467;28;1201;-72
2022/06/21 08:54:25;;;;;;;;;;;20.60;71.70;;;;;;5033341;28;829;-72
2022/06/21 08:57:05;;;;;;;;;;;20.60;71.70;;;;;;5033274;28;1973;-72
2022/06/21 08:59:34;;;;;;;;;;;20.60;71.70;;;;;;5016583;28;1326;-73
2022/06/21 09:02:08;;;;;;;;;;;20.60;71.70;;;;;;5033254;28;1215;-72
2022/06/21 09:04:37;;;;;;;;;;;20.60;71.70;;;;;;5046008;28;1258;-72
2022/06/21 09:07:16;;;;;;;;;;;20.60;71.70;;;;;;5052809;28;1439;-72
2022/06/21 09:09:45;;;;;;;;;;;20.60;71.70;;;;;;5052866;28;843;-71
2022/06/21 09:12:16;;;;;;;;;;;20.60;71.70;;;;;;5052908;28;1211;-71
2022/06/21 09:14:52;;;;;;;;;;;20.60;71.70;;;;;;5052877;28;1301;-71
2022/06/21 09:17:41;;;;;;;;;;;20.60;71.70;;;;;;5048645;28;2231;-72
2022/06/21 09:20:07;;;;;;;;;;;20.60;71.70;;;;;;5052369;28;1173;-73
2022/06/21 09:22:50;;;;;;;;;;;20.60;71.70;;;;;;5052579;28;1311;-72
2022/06/21 09:25:16;;;;;;;;;;;20.60;71.70;;;;;;5052567;28;1007;-73
2022/06/21 09:27:51;;;;;;;;;;;20.60;71.70;;;;;;5053943;28;1192;-73
2022/06/21 09:30:18;;;;;;;;;;;20.60;71.70;;;;;;5053462;28;1104;-72
2022/06/21 09:33:02;;;;;;;;;;;20.60;71.70;;;;;;5052858;28;1176;-73
2022/06/21 09:35:31;;;;;;;;;;;20.60;71.70;;;;;;5053740;28;1029;-72
2022/06/21 09:38:05;;;;;;;;;;;20.60;71.70;;;;;;5048284;28;2251;-73
2022/06/21 09:40:41;;;;;;;;;;;20.60;71.70;;;;;;5038560;28;1214;-73
2022/06/21 09:43:39;;;;;;;;;;;20.60;71.70;;;;;;5058988;28;1284;-73
2022/06/21 09:46:05;;;;;;;;;;;20.60;71.70;;;;;;5050263;28;1465;-73
2022/06/21 09:48:30;;;;;;;;;;;20.60;71.70;;;;;;5073552;28;878;-73
2022/06/21 09:50:58;;;;;;;;;;;20.60;71.70;;;;;;5073322;28;854;-74
2022/06/21 09:53:59;;;;;;;;;;;20.60;71.70;;;;;;5071935;28;1257;-73
2022/06/21 09:56:31;;;;;;;;;;;20.60;71.70;;;;;;5031021;28;1961;-74
2022/06/21 09:59:02;;;;;;;;;;;20.60;71.70;;;;;;5065995;28;912;-74
2022/06/21 10:01:38;;;;;;;;;;;20.60;71.70;;;;;;5071485;28;1204;-74
2022/06/21 10:04:13;;;;;;;;;;;20.60;71.70;;;;;;5065038;28;1133;-74
2022/06/21 10:06:44;;;;;;;;;;;20.60;71.70;;;;;;5073198;28;791;-74
2022/06/21 10:09:28;;;;;;;;;;;20.60;72.20;;;;;;5072064;28;850;-74
2022/06/21 10:12:00;;;;;;;;;;;20.60;71.70;;;;;;5072807;28;1259;-74
2022/06/21 10:14:48;;;;;;;;;;;20.60;71.70;;;;;;5071870;28;874;-74
2022/06/21 10:17:22;;;;;;;;;;;20.60;71.70;;;;;;5071671;28;1959;-74
2022/06/21 10:19:59;;;;;;;;;;;20.60;71.70;;;;;;5057070;28;1341;-74
2022/06/21 10:22:33;;;;;;;;;;;20.60;71.80;;;;;;5035035;28;1285;-74
2022/06/21 10:25:18;;;;;;;;;;;20.60;71.80;;;;;;5053186;28;882;-74
2022/06/21 10:27:43;;;;;;;;;;;20.60;71.70;;;;;;5053247;28;1010;-74
2022/06/21 10:30:22;;;;;;;;;;;20.60;71.70;;;;;;5052807;28;1013;-74
2022/06/21 10:32:53;;;;;;;;;;;20.60;71.70;;;;;;5051723;28;1197;-74
2022/06/21 10:35:40;;;;;;;;;;;20.60;71.70;;;;;;5051623;28;1373;-74
2022/06/21 10:38:12;;;;;;;;;;;20.60;71.70;;;;;;5034997;28;1906;-74
2022/06/21 10:40:40;;;;;;;;;;;20.60;71.80;;;;;;5051086;28;1227;-73
2022/06/21 10:43:15;;;;;;;;;;;20.60;71.80;;;;;;5052582;28;1275;-73
2022/06/21 10:45:42;;;;;;;;;;;20.60;71.70;;;;;;5052785;28;1035;-74
2022/06/21 10:48:17;;;;;;;;;;;20.60;71.80;;;;;;5052811;28;842;-74
2022/06/21 10:50:51;;;;;;;;;;;20.60;71.80;;;;;;5052870;28;858;-73
2022/06/21 10:53:34;;;;;;;;;;;20.60;71.80;;;;;;5051409;28;1183;-74
2022/06/21 10:58:47;;;;;;;;;;;20.60;71.80;;;;;;5052624;28;633;-74
2022/06/21 11:01:21;;;;;;;;;;;20.60;71.80;;;;;;5051373;28;902;-73
2022/06/21 11:03:47;;;;;;;;;;;20.60;71.80;;;;;;5034532;28;2022;-74
2022/06/21 11:06:24;;;;;;;;;;;20.60;71.70;;;;;;5060536;28;1198;-73
2022/06/21 11:09:05;;;;;;;;;;;20.60;71.80;;;;;;5047683;28;1742;-74
2022/06/21 11:11:31;;;;;;;;;;;20.60;71.70;;;;;;5045102;28;1719;-73
2022/06/21 11:14:00;;;;;;;;;;;20.60;71.70;;;;;;5048954;28;1775;-74
2022/06/21 11:16:29;;;;;;;;;;;20.60;71.80;;;;;;5031287;28;1906;-74
2022/06/21 11:19:09;;;;;;;;;;;20.60;71.80;;;;;;5030878;28;1275;-74
2022/06/21 11:21:43;;;;;;;;;;;20.60;71.80;;;;;;5044133;28;1204;-73
2022/06/21 11:24:18;;;;;;;;;;;20.60;71.70;;;;;;5042751;28;2036;-73
2022/06/21 11:26:46;;;;;;;;;;;20.60;71.70;;;;;;5051121;28;1202;-73
2022/06/21 11:29:30;;;;;;;;;;;20.60;71.70;;;;;;5053111;28;1134;-73
2022/06/21 11:31:57;;;;;;;;;;;20.60;72.50;;;;;;5055367;28;1189;-73
2022/06/21 11:34:26;;;;;;;;;;;20.60;71.80;;;;;;5054779;28;994;-73
2022/06/21 11:36:55;;;;;;;;;;;20.60;71.70;;;;;;5054858;28;1959;-73
2022/06/21 11:39:28;;;;;;;;;;;20.60;71.70;;;;;;5054682;28;977;-73
2022/06/21 11:42:06;;;;;;;;;;;20.60;71.70;;;;;;5054344;28;1260;-73
2022/06/21 11:44:37;;;;;;;;;;;20.60;71.80;;;;;;5055787;28;984;-73
2022/06/21 11:47:12;;;;;;;;;;;20.60;71.80;;;;;;5054037;28;977;-73
2022/06/21 11:49:56;;;;;;;;;;;20.60;71.70;;;;;;5041849;28;873;-74
2022/06/21 11:52:31;;;;;;;;;;;20.60;71.70;;;;;;5046402;28;2073;-73
2022/06/21 11:55:00;;;;;;;;;;;20.60;71.80;;;;;;5038365;28;859;-73
2022/06/21 11:57:38;;;;;;;;;;;20.60;71.70;;;;;;5053793;28;1910;-73
2022/06/21 12:00:15;;;;;;;;;;;20.60;71.80;;;;;;5042130;28;820;-73
2022/06/21 12:02:44;;;;;;;;;;;20.60;71.80;;;;;;5033248;28;1237;-73
2022/06/21 12:05:29;;;;;;;;;;;20.60;71.80;;;;;;5063923;28;1347;-73
2022/06/21 12:08:10;;;;;;;;;;;20.60;71.80;;;;;;5067853;28;1204;-73
2022/06/21 12:10:36;;;;;;;;;;;20.60;71.70;;;;;;5073555;28;807;-73
2022/06/21 12:13:04;;;;;;;;;;;20.60;71.70;;;;;;5073553;28;1344;-73
2022/06/21 12:15:45;;;;;;;;;;;20.60;71.70;;;;;;5074642;28;882;-73
2022/06/21 12:18:10;;;;;;;;;;;20.60;71.70;;;;;;5073887;28;1906;-73
2022/06/21 12:20:44;;;;;;;;;;;20.60;71.70;;;;;;5052972;28;1448;-73
2022/06/21 12:23:10;;;;;;;;;;;20.60;71.70;;;;;;5055557;28;1260;-73
2022/06/21 12:25:35;;;;;;;;;;;20.60;71.70;;;;;;5053864;28;1005;-73
2022/06/21 12:28:01;;;;;;;;;;;20.60;71.70;;;;;;5037259;28;1215;-73
2022/06/21 12:30:28;;;;;;;;;;;20.60;71.70;;;;;;5053719;28;906;-73
2022/06/21 12:32:56;;;;;;;;;;;20.60;71.80;;;;;;5053712;28;1189;-73
2022/06/21 12:35:29;;;;;;;;;;;20.60;71.70;;;;;;5053590;28;855;-73
2022/06/21 12:37:55;;;;;;;;;;;20.60;71.70;;;;;;5053524;28;1969;-73
2022/06/21 12:40:23;;;;;;;;;;;20.60;71.70;;;;;;5036152;28;1256;-73
2022/06/21 12:42:52;;;;;;;;;;;20.60;71.80;;;;;;5052821;28;1301;-73
2022/06/21 12:45:17;;;;;;;;;;;20.60;71.70;;;;;;5054945;28;890;-73
2022/06/21 12:48:04;;;;;;;;;;;20.60;71.70;;;;;;5054668;28;877;-73
2022/06/21 12:50:48;;;;;;;;;;;20.60;71.70;;;;;;5053247;28;823;-73
2022/06/21 12:53:19;;;;;;;;;;;20.60;71.70;;;;;;5054565;28;1270;-73
2022/06/21 12:55:54;;;;;;;;;;;20.60;72.50;;;;;;5036765;28;2160;-73
2022/06/21 12:58:29;;;;;;;;;;;20.60;71.70;;;;;;5049800;28;2079;-73
2022/06/21 13:00:55;;;;;;;;;;;20.60;71.80;;;;;;5042730;28;1002;-73
2022/06/21 13:03:20;;;;;;;;;;;20.60;71.70;;;;;;5050758;28;1185;-73
2022/06/21 13:06:11;;;;;;;;;;;20.60;71.70;;;;;;5051637;28;1273;-73
2022/06/21 13:08:53;;;;;;;;;;;20.60;71.70;;;;;;5033161;28;796;-73
2022/06/21 13:11:32;;;;;;;;;;;20.60;71.80;;;;;;5032704;28;1201;-73
2022/06/21 13:14:16;;;;;;;;;;;20.60;71.70;;;;;;5033146;28;1018;-73
2022/06/21 13:16:44;;;;;;;;;;;20.60;71.70;;;;;;5034239;28;1943;-73
2022/06/21 13:19:16;;;;;;;;;;;20.60;71.80;;;;;;5043662;28;1099;-73
2022/06/21 13:21:44;;;;;;;;;;;20.60;71.70;;;;;;5052552;28;1642;-73
2022/06/21 13:24:32;;;;;;;;;;;20.60;71.70;;;;;;5053850;28;863;-73
2022/06/21 13:27:00;;;;;;;;;;;20.60;71.70;;;;;;5054086;28;965;-73
2022/06/21 13:29:32;;;;;;;;;;;20.60;71.80;;;;;;5052527;28;1384;-73
2022/06/21 13:31:59;;;;;;;;;;;20.60;71.70;;;;;;5052282;28;1288;-73
2022/06/21 13:34:31;;;;;;;;;;;20.60;71.80;;;;;;5052496;28;912;-73
2022/06/21 13:36:57;;;;;;;;;;;20.60;71.70;;;;;;5052503;28;1894;-73
2022/06/21 13:39:31;;;;;;;;;;;20.60;71.70;;;;;;5052403;28;867;-74
2022/06/21 13:44:45;;;;;;;;;;;20.60;71.70;;;;;;5052655;28;653;-73
2022/06/21 13:47:23;;;;;;;;;;;20.60;71.70;;;;;;5052651;28;864;-73
2022/06/21 13:49:50;;;;;;;;;;;20.60;71.70;;;;;;5053371;28;1057;-73
2022/06/21 13:52:22;;;;;;;;;;;20.60;71.70;;;;;;5051550;28;1283;-73
2022/06/21 13:55:10;;;;;;;;;;;20.60;71.80;;;;;;5051866;28;820;-73
2022/06/21 13:57:54;;;;;;;;;;;20.60;71.80;;;;;;5050993;28;1962;-73
2022/06/21 14:00:23;;;;;;;;;;;20.60;71.80;;;;;;5053048;28;887;-73
2022/06/21 14:03:09;;;;;;;;;;;20.60;71.70;;;;;;5052105;28;1201;-73
2022/06/21 14:05:40;;;;;;;;;;;20.60;71.80;;;;;;5060646;28;1331;-73
2022/06/21 14:08:08;;;;;;;;;;;20.60;71.70;;;;;;5055500;28;1311;-73
2022/06/21 14:10:37;;;;;;;;;;;20.60;71.80;;;;;;5054870;28;1143;-73
2022/06/21 14:13:19;;;;;;;;;;;20.60;71.70;;;;;;5073252;28;1198;-73
2022/06/21 14:15:48;;;;;;;;;;;20.60;71.70;;;;;;5071626;28;1303;-73
2022/06/21 14:18:22;;;;;;;;;;;20.60;71.80;;;;;;5071444;28;1894;-73
2022/06/21 14:20:54;;;;;;;;;;;20.60;71.80;;;;;;5051630;28;793;-73
2022/06/21 14:23:28;;;;;;;;;;;20.60;71.80;;;;;;5035080;28;1217;-73
2022/06/21 14:26:09;;;;;;;;;;;20.60;71.70;;;;;;5051875;28;1009;-73
2022/06/21 14:28:37;;;;;;;;;;;20.60;71.70;;;;;;5053288;28;783;-73
2022/06/21 14:31:07;;;;;;;;;;;20.60;71.80;;;;;;5052728;28;851;-73
2022/06/21 14:33:34;;;;;;;;;;;20.60;71.80;;;;;;5051638;28;1236;-73
2022/06/21 14:36:02;;;;;;;;;;;20.60;71.80;;;;;;5052914;28;823;-73
2022/06/21 14:38:37;;;;;;;;;;;20.60;71.70;;;;;;5051546;28;1895;-73
2022/06/21 14:41:10;;;;;;;;;;;20.60;71.70;;;;;;5051250;28;1151;-73
2022/06/21 14:43:55;;;;;;;;;;;20.60;71.70;;;;;;5070712;22;3802;-70
2022/06/21 14:46:23;;;;;;;;;;;20.60;71.80;;;;;;5053517;28;1910;-71
2022/06/21 14:48:57;;;;;;;;;;;20.60;70.50;;;;;;5072625;28;803;-71
2022/06/21 14:51:22;;;;;;;;;;;20.60;67.30;;;;;;5054420;28;894;-72
2022/06/21 14:53:54;;;;;;;;;;;20.70;65.30;;;;;;5072539;28;1211;-72
2022/06/21 14:56:46;;;;;;;;;;;20.70;65.40;;;;;;5071418;28;1987;-72
2022/06/21 14:59:19;;;;;;;;;;;20.70;64.40;;;;;;5056776;28;1085;-72
2022/06/21 15:01:46;;;;;;;;;;;20.70;63.40;;;;;;5054310;28;1294;-71
2022/06/21 15:04:31;;;;;;;;;;;20.80;61.60;;;;;;5079875;28;1311;-72
2022/06/21 15:06:59;;;;;;;;;;;20.80;59.70;;;;;;5076748;28;858;-72
2022/06/21 15:09:27;;;;;;;;;;;20.80;59.40;;;;;;5076865;28;902;-71
2022/06/21 15:11:53;;;;;;;;;;;20.80;59.20;;;;;;5058547;28;851;-71